Time;durP1;ratioP1;P1;durP2;ratioP2;P2;SDS_P1;SDS_P2;PMS_P1;PMS_P2;Temp;Humidity;BMP_temperature;BMP_pressure;BME280_temperature;BME280_humidity;BME280_pressure;Samples;Min_cycle;Max_cycle;Signal;HPM_P1;HPM_P2
2021/01/16 00:00:35;;;;;;;;;;;;;;;16.54;61.05;101392.84;4911435;29;1140;-69
2021/01/16 00:03:07;;;;;;;;;;;;;;;16.52;61.07;101390.28;4911070;29;1230;-69
2021/01/16 00:05:34;;;;;;;;;;;;;;;16.52;61.07;101392.91;4911563;29;1078;-69
2021/01/16 00:08:00;;;;;;;;;;;;;;;16.52;61.09;101398.19;4894183;29;1250;-69
2021/01/16 00:10:27;;;;;;;;;;;;;;;16.52;61.65;101402.56;4916266;29;1106;-70
2021/01/16 00:12:54;;;;;;;;;;;;;;;16.48;60.98;101412.34;4913256;29;1534;-69
2021/01/16 00:15:20;;;;;;;;;;;;;;;16.51;61.36;101416.63;4916171;29;1919;-70
2021/01/16 00:18:16;;;;;;;;;;;;;;;16.49;61.04;101413.22;4915923;29;1218;-71
2021/01/16 00:20:43;;;;;;;;;;;;;;;16.42;61.01;101407.31;4916239;29;962;-72
2021/01/16 00:23:10;;;;;;;;;;;;;;;16.42;60.89;101416.06;4915680;29;1337;-71
2021/01/16 00:25:36;;;;;;;;;;;;;;;16.43;60.79;101430.06;4915926;29;1093;-71
2021/01/16 00:28:03;;;;;;;;;;;;;;;16.42;60.82;101431.84;4915579;29;1320;-71
2021/01/16 00:30:31;;;;;;;;;;;;;;;16.41;60.37;101424.84;4915377;29;937;-71
2021/01/16 00:32:57;;;;;;;;;;;;;;;16.40;60.47;101427.56;4915643;29;1312;-70
2021/01/16 00:35:25;;;;;;;;;;;;;;;16.36;60.52;101434.69;4915606;29;1910;-70
2021/01/16 00:37:52;;;;;;;;;;;;;;;16.36;60.37;101428.56;4915839;29;1384;-69
2021/01/16 00:40:22;;;;;;;;;;;;;;;16.36;60.36;101426.81;4915098;29;834;-70
2021/01/16 00:42:55;;;;;;;;;;;;;;;16.34;60.91;101427.78;4915101;29;1293;-70
2021/01/16 00:45:22;;;;;;;;;;;;;;;16.32;60.37;101421.72;4916287;29;1500;-70
2021/01/16 00:47:49;;;;;;;;;;;;;;;16.30;60.50;101423.53;4915381;29;1289;-69
2021/01/16 00:50:18;;;;;;;;;;;;;;;16.28;60.46;101420.13;4915513;29;915;-69
2021/01/16 00:52:53;;;;;;;;;;;;;;;16.30;60.24;101419.13;4898306;29;1321;-70
2021/01/16 00:55:19;;;;;;;;;;;;;;;16.26;60.18;101420.16;4915308;29;1907;-71
2021/01/16 00:57:46;;;;;;;;;;;;;;;16.27;60.26;101421.00;4915394;29;1273;-70
2021/01/16 01:00:12;;;;;;;;;;;;;;;16.24;60.19;101415.88;4915184;29;847;-71
2021/01/16 01:02:42;;;;;;;;;;;;;;;16.26;60.58;101409.63;4915188;29;1374;-70
2021/01/16 01:05:13;;;;;;;;;;;;;;;16.25;60.29;101407.09;4915114;29;827;-70
2021/01/16 01:07:46;;;;;;;;;;;;;;;16.25;60.32;101410.56;4915395;29;1301;-72
2021/01/16 01:10:14;;;;;;;;;;;;;;;16.23;60.26;101416.81;4910452;29;1254;-70
2021/01/16 01:12:40;;;;;;;;;;;;;;;16.23;60.46;101409.75;4894405;29;1368;-71
2021/01/16 01:15:08;;;;;;;;;;;;;;;16.22;60.45;101408.06;4897873;29;1910;-70
2021/01/16 01:17:34;;;;;;;;;;;;;;;16.20;60.22;101414.28;4915095;29;1265;-71
2021/01/16 01:20:00;;;;;;;;;;;;;;;16.19;60.13;101412.56;4912024;29;853;-70
2021/01/16 01:22:33;;;;;;;;;;;;;;;16.20;60.13;101417.75;4910014;29;1330;-71
2021/01/16 01:24:59;;;;;;;;;;;;;;;16.16;60.19;101412.66;4912707;29;1312;-71
2021/01/16 01:27:25;;;;;;;;;;;;;;;16.15;60.13;101427.56;4914834;29;1352;-72
2021/01/16 01:29:52;;;;;;;;;;;;;;;16.14;60.28;101439.00;4897317;29;1279;-70
2021/01/16 01:32:18;;;;;;;;;;;;;;;16.15;60.23;101434.59;4914842;29;1254;-71
2021/01/16 01:34:44;;;;;;;;;;;;;;;16.10;60.23;101440.03;4914849;29;1980;-71
2021/01/16 01:37:10;;;;;;;;;;;;;;;16.14;60.00;101443.41;4914621;29;1309;-70
2021/01/16 01:39:37;;;;;;;;;;;;;;;16.12;60.50;101443.44;4914280;29;1272;-71
2021/01/16 01:42:04;;;;;;;;;;;;;;;16.13;60.15;101441.69;4912190;29;1085;-70
2021/01/16 01:44:30;;;;;;;;;;;;;;;16.12;59.88;101432.06;4914039;29;1511;-71
2021/01/16 01:46:56;;;;;;;;;;;;;;;16.12;60.14;101426.81;4914551;29;935;-71
2021/01/16 01:49:23;;;;;;;;;;;;;;;16.10;60.09;101426.88;4914164;29;1231;-71
2021/01/16 01:51:50;;;;;;;;;;;;;;;16.09;60.18;101421.66;4914494;29;1054;-71
2021/01/16 01:54:17;;;;;;;;;;;;;;;16.08;60.15;101418.19;4913919;29;1993;-71
2021/01/16 01:56:44;;;;;;;;;;;;;;;16.06;60.33;101417.38;4909850;29;1077;-70
2021/01/16 01:59:12;;;;;;;;;;;;;;;16.07;60.07;101428.75;4914479;29;1265;-71
2021/01/16 02:01:44;;;;;;;;;;;;;;;16.07;60.13;101426.13;4914123;29;1026;-71
2021/01/16 02:04:11;;;;;;;;;;;;;;;16.04;60.46;101432.38;4909403;29;1194;-70
2021/01/16 02:06:37;;;;;;;;;;;;;;;16.03;60.36;101424.50;4910340;29;1053;-70
2021/01/16 02:09:04;;;;;;;;;;;;;;;16.03;60.43;101430.63;4913874;29;1222;-69
2021/01/16 02:11:31;;;;;;;;;;;;;;;16.05;60.54;101430.59;4913319;29;1609;-70
2021/01/16 02:13:57;;;;;;;;;;;;;;;16.02;60.54;101433.34;4913585;29;1975;-71
2021/01/16 02:16:33;;;;;;;;;;;;;;;16.02;60.31;101425.44;4913858;29;1036;-71
2021/01/16 02:19:01;;;;;;;;;;;;;;;16.00;60.59;101422.00;4913444;29;1255;-70
2021/01/16 02:21:29;;;;;;;;;;;;;;;16.01;60.43;101431.59;4913041;29;1154;-71
2021/01/16 02:24:15;;;;;;;;;;;;;;;15.99;60.59;101430.81;4896276;29;1412;-71
2021/01/16 02:26:41;;;;;;;;;;;;;;;16.01;60.48;101442.13;4914050;29;1048;-71
2021/01/16 02:29:10;;;;;;;;;;;;;;;16.01;60.42;101445.59;4913703;29;1272;-70
2021/01/16 02:31:39;;;;;;;;;;;;;;;15.99;60.47;101446.56;4913275;29;1020;-71
2021/01/16 02:34:08;;;;;;;;;;;;;;;16.00;60.58;101448.28;4905869;29;1978;-71
2021/01/16 02:36:34;;;;;;;;;;;;;;;15.98;60.80;101447.47;4908708;29;1197;-70
2021/01/16 02:39:10;;;;;;;;;;;;;;;16.00;60.80;101443.88;4912643;29;1300;-71
2021/01/16 02:41:40;;;;;;;;;;;;;;;15.99;60.72;101443.94;4913476;29;957;-69
2021/01/16 02:44:15;;;;;;;;;;;;;;;15.98;60.56;101445.72;4908620;29;1277;-70
2021/01/16 02:46:57;;;;;;;;;;;;;;;15.93;60.41;101446.78;4910339;29;952;-70
2021/01/16 02:49:29;;;;;;;;;;;;;;;15.96;60.63;101452.78;4895964;29;1345;-69
2021/01/16 02:52:11;;;;;;;;;;;;;;;15.94;60.42;101456.38;4913418;29;948;-70
2021/01/16 02:54:43;;;;;;;;;;;;;;;15.91;60.44;101465.22;4913029;29;1989;-70
2021/01/16 02:57:10;;;;;;;;;;;;;;;15.95;60.92;101463.34;4912838;29;1364;-70
2021/01/16 02:59:39;;;;;;;;;;;;;;;15.92;60.61;101464.31;4913209;29;1101;-70
2021/01/16 03:02:06;;;;;;;;;;;;;;;15.94;60.74;101464.25;4913211;29;1264;-69
2021/01/16 03:04:33;;;;;;;;;;;;;;;15.92;60.41;101459.06;4913001;29;745;-70
2021/01/16 03:07:00;;;;;;;;;;;;;;;15.94;60.49;101466.88;4913294;29;1109;-70
2021/01/16 03:09:28;;;;;;;;;;;;;;;15.90;60.56;101470.53;4912994;29;1195;-70
2021/01/16 03:11:56;;;;;;;;;;;;;;;15.87;60.61;101468.00;4913214;29;1237;-70
2021/01/16 03:14:26;;;;;;;;;;;;;;;15.87;60.66;101458.34;4912737;29;1902;-68
2021/01/16 03:17:12;;;;;;;;;;;;;;;15.88;60.54;101469.72;4895678;29;1246;-69
2021/01/16 03:19:41;;;;;;;;;;;;;;;15.88;60.76;101472.34;4912826;29;808;-69
2021/01/16 03:22:18;;;;;;;;;;;;;;;15.87;60.72;101468.00;4912886;29;1367;-70
2021/01/16 03:24:45;;;;;;;;;;;;;;;15.88;60.41;101475.81;4913744;29;789;-68
2021/01/16 03:27:12;;;;;;;;;;;;;;;15.86;60.84;101480.28;4913382;29;1309;-67
2021/01/16 03:29:39;;;;;;;;;;;;;;;15.90;60.70;101481.06;4913561;29;764;-70
2021/01/16 03:32:06;;;;;;;;;;;;;;;15.87;60.42;101484.59;4912950;29;1269;-70
2021/01/16 03:34:33;;;;;;;;;;;;;;;15.81;60.58;101480.44;4912577;29;1922;-70
2021/01/16 03:36:59;;;;;;;;;;;;;;;15.81;60.50;101490.06;4912731;29;1062;-70
2021/01/16 03:39:26;;;;;;;;;;;;;;;15.83;60.48;101483.03;4912510;29;1283;-69
2021/01/16 03:41:52;;;;;;;;;;;;;;;15.82;60.27;101481.28;4912305;29;1086;-69
2021/01/16 03:44:19;;;;;;;;;;;;;;;15.80;60.95;101473.47;4914500;29;1226;-69
2021/01/16 03:46:45;;;;;;;;;;;;;;;15.85;60.66;101482.06;4915252;29;1197;-69
2021/01/16 03:49:12;;;;;;;;;;;;;;;15.82;60.41;101484.78;4916259;29;1297;-70
2021/01/16 03:51:38;;;;;;;;;;;;;;;15.81;60.54;101474.31;4916643;29;1091;-69
2021/01/16 03:54:05;;;;;;;;;;;;;;;15.83;60.49;101483.88;4916551;29;1982;-71
2021/01/16 03:56:31;;;;;;;;;;;;;;;15.79;60.48;101503.28;4914535;29;1267;-69
2021/01/16 03:58:58;;;;;;;;;;;;;;;15.77;60.52;101496.34;4916420;29;1313;-70
2021/01/16 04:01:24;;;;;;;;;;;;;;;15.79;60.26;101502.41;4914785;29;1072;-70
2021/01/16 04:03:50;;;;;;;;;;;;;;;15.77;60.34;101512.97;4916168;29;1206;-71
2021/01/16 04:06:18;;;;;;;;;;;;;;;15.73;60.79;101519.22;4916144;29;1049;-70
2021/01/16 04:08:44;;;;;;;;;;;;;;;15.75;60.62;101522.66;4916041;29;1222;-69
2021/01/16 04:11:10;;;;;;;;;;;;;;;15.76;60.44;101526.16;4911339;29;1091;-70
2021/01/16 04:13:38;;;;;;;;;;;;;;;15.75;60.12;101530.53;4912221;29;1226;-70
2021/01/16 04:16:05;;;;;;;;;;;;;;;15.76;60.23;101532.25;4915830;29;1915;-71
2021/01/16 04:18:32;;;;;;;;;;;;;;;15.75;60.30;101533.16;4915682;29;1313;-69
2021/01/16 04:20:58;;;;;;;;;;;;;;;15.71;60.20;101538.56;4915906;29;1132;-69
2021/01/16 04:23:25;;;;;;;;;;;;;;;15.71;60.12;101541.22;4915717;29;1231;-69
2021/01/16 04:25:51;;;;;;;;;;;;;;;15.67;60.06;101537.81;4915925;29;1112;-69
2021/01/16 04:28:17;;;;;;;;;;;;;;;15.65;60.10;101547.53;4898512;29;1467;-69
2021/01/16 04:30:43;;;;;;;;;;;;;;;15.68;60.19;101552.69;4915897;29;1185;-69
2021/01/16 04:33:10;;;;;;;;;;;;;;;15.70;60.06;101556.09;4915776;29;1225;-69
2021/01/16 04:35:39;;;;;;;;;;;;;;;15.67;59.87;101561.44;4915587;29;1985;-70
2021/01/16 04:38:06;;;;;;;;;;;;;;;15.66;60.07;101564.13;4907896;29;1306;-70
2021/01/16 04:40:32;;;;;;;;;;;;;;;15.65;59.90;101573.78;4898752;29;1209;-71
2021/01/16 04:42:59;;;;;;;;;;;;;;;15.65;59.85;101565.91;4914702;29;1262;-70
2021/01/16 04:45:25;;;;;;;;;;;;;;;15.65;59.81;101563.28;4894459;29;1289;-70
2021/01/16 04:47:55;;;;;;;;;;;;;;;15.66;59.80;101569.38;4896829;29;1286;-71
2021/01/16 04:50:25;;;;;;;;;;;;;;;15.66;59.72;101580.75;4895188;29;827;-71
2021/01/16 04:52:54;;;;;;;;;;;;;;;15.67;60.12;101571.97;4896850;29;1384;-70
2021/01/16 04:55:22;;;;;;;;;;;;;;;15.67;59.60;101579.84;4879006;29;1911;-70
2021/01/16 04:57:49;;;;;;;;;;;;;;;15.66;59.63;101580.75;4896511;29;1371;-70
2021/01/16 05:00:16;;;;;;;;;;;;;;;15.62;59.85;101589.63;4896063;29;1098;-70
2021/01/16 05:02:42;;;;;;;;;;;;;;;15.60;59.65;101585.31;4879332;29;1266;-70
2021/01/16 05:05:10;;;;;;;;;;;;;;;15.60;59.94;101596.69;4896449;29;793;-71
2021/01/16 05:07:39;;;;;;;;;;;;;;;15.61;59.63;101592.28;4894633;29;1329;-70
2021/01/16 05:10:07;;;;;;;;;;;;;;;15.57;59.70;101596.78;4896577;29;779;-70
2021/01/16 05:12:46;;;;;;;;;;;;;;;15.58;59.64;101592.38;4879136;29;1262;-70
2021/01/16 05:15:20;;;;;;;;;;;;;;;15.57;59.71;101596.78;4896401;29;1915;-70
2021/01/16 05:17:57;;;;;;;;;;;;;;;15.62;59.87;101591.41;4896379;29;1362;-69
2021/01/16 05:20:24;;;;;;;;;;;;;;;15.58;59.53;101593.25;4895962;29;753;-70
2021/01/16 05:23:11;;;;;;;;;;;;;;;15.61;59.70;101601.03;4894367;29;1453;-70
2021/01/16 05:25:51;;;;;;;;;;;;;;;15.59;59.50;101602.88;4879433;29;1036;-69
2021/01/16 05:28:35;;;;;;;;;;;;;;;15.52;59.61;101606.56;4894916;29;1317;-70
2021/01/16 05:31:02;;;;;;;;;;;;;;;15.55;59.78;101609.09;4878953;29;1291;-70
2021/01/16 05:33:31;;;;;;;;;;;;;;;15.52;59.67;101605.69;4895965;29;1329;-70
2021/01/16 05:35:58;;;;;;;;;;;;;;;15.53;59.37;101616.19;4895903;29;1915;-69
2021/01/16 05:38:32;;;;;;;;;;;;;;;15.54;59.51;101615.25;4895779;29;1318;-70
2021/01/16 05:40:58;;;;;;;;;;;;;;;15.54;59.54;101617.88;4895806;29;1139;-71
2021/01/16 05:43:25;;;;;;;;;;;;;;;15.50;59.53;101621.53;4895559;29;1313;-70
2021/01/16 05:45:57;;;;;;;;;;;;;;;15.53;59.57;101624.06;4912793;29;1032;-70
2021/01/16 05:48:24;;;;;;;;;;;;;;;15.53;59.48;101634.56;4914513;29;1242;-70
2021/01/16 05:50:51;;;;;;;;;;;;;;;15.51;59.41;101636.34;4914461;29;1076;-70
2021/01/16 05:53:18;;;;;;;;;;;;;;;15.54;59.48;101638.03;4914132;29;1246;-70
2021/01/16 05:55:45;;;;;;;;;;;;;;;15.56;59.33;101633.59;4913981;29;1998;-70
2021/01/16 05:58:14;;;;;;;;;;;;;;;15.50;59.52;101625.91;4912888;29;1209;-70
2021/01/16 06:00:43;;;;;;;;;;;;;;;15.54;59.60;101631.00;4914044;29;1017;-70
2021/01/16 06:03:11;;;;;;;;;;;;;;;15.50;59.24;101637.28;4909458;29;1296;-69
2021/01/16 06:05:37;;;;;;;;;;;;;;;15.48;59.35;101640.81;4909478;29;1534;-70
2021/01/16 06:08:04;;;;;;;;;;;;;;;15.48;59.60;101643.44;4912421;29;1609;-70
2021/01/16 06:10:31;;;;;;;;;;;;;;;15.51;59.36;101648.63;4913880;29;824;-69
2021/01/16 06:13:08;;;;;;;;;;;;;;;15.50;59.34;101646.91;4914066;29;1291;-70
2021/01/16 06:15:35;;;;;;;;;;;;;;;15.53;59.47;101652.94;4896752;29;1976;-70
2021/01/16 06:18:02;;;;;;;;;;;;;;;15.48;59.37;101649.56;4913710;29;1371;-69
2021/01/16 06:20:30;;;;;;;;;;;;;;;15.48;59.24;101649.56;4913634;29;831;-69
2021/01/16 06:22:59;;;;;;;;;;;;;;;15.44;59.23;101658.41;4914003;29;1289;-69
2021/01/16 06:25:25;;;;;;;;;;;;;;;15.45;59.14;101660.13;4913737;29;909;-69
2021/01/16 06:27:52;;;;;;;;;;;;;;;15.42;59.52;101660.22;4913888;29;1297;-69
2021/01/16 06:30:19;;;;;;;;;;;;;;;15.42;59.35;101659.34;4913645;29;907;-69
2021/01/16 06:32:49;;;;;;;;;;;;;;;15.37;59.35;101664.75;4913781;29;1332;-69
2021/01/16 06:35:16;;;;;;;;;;;;;;;15.33;59.27;101656.09;4913257;29;1986;-70
2021/01/16 06:37:44;;;;;;;;;;;;;;;15.41;59.76;101671.63;4909102;29;1310;-69
2021/01/16 06:40:12;;;;;;;;;;;;;;;15.46;59.09;101669.75;4913510;29;820;-70
2021/01/16 06:42:38;;;;;;;;;;;;;;;15.42;59.16;101675.97;4913618;29;1371;-70
2021/01/16 06:45:21;;;;;;;;;;;;;;;15.37;59.52;101671.75;4896089;29;1594;-69
2021/01/16 06:47:53;;;;;;;;;;;;;;;15.37;59.41;101690.13;4896358;29;1377;-69
2021/01/16 06:50:20;;;;;;;;;;;;;;;15.36;59.50;101685.78;4912039;29;1442;-69
2021/01/16 06:52:46;;;;;;;;;;;;;;;15.38;59.31;101684.00;4911658;29;1293;-70
2021/01/16 06:55:16;;;;;;;;;;;;;;;15.38;59.21;101684.00;4913204;29;1919;-70
2021/01/16 06:57:42;;;;;;;;;;;;;;;15.36;59.24;101684.03;4913533;29;1380;-68
2021/01/16 07:00:09;;;;;;;;;;;;;;;15.34;59.28;101680.59;4913178;29;840;-70
2021/01/16 07:02:36;;;;;;;;;;;;;;;15.35;59.20;101674.41;4913258;29;1273;-70
2021/01/16 07:05:05;;;;;;;;;;;;;;;15.39;59.49;101689.19;4911579;29;827;-69
2021/01/16 07:07:35;;;;;;;;;;;;;;;15.35;59.24;101695.41;4912796;29;1280;-70
2021/01/16 07:10:01;;;;;;;;;;;;;;;15.36;59.44;101686.66;4912747;29;765;-69
2021/01/16 07:12:28;;;;;;;;;;;;;;;15.29;59.17;101685.94;4913090;29;1293;-70
2021/01/16 07:14:54;;;;;;;;;;;;;;;15.35;59.16;101690.16;4912737;29;1911;-70
2021/01/16 07:17:22;;;;;;;;;;;;;;;15.30;59.10;101684.19;4910825;29;1387;-70
2021/01/16 07:19:49;;;;;;;;;;;;;;;15.29;59.21;101690.34;4895220;29;1433;-70
2021/01/16 07:22:16;;;;;;;;;;;;;;;15.35;59.07;101690.16;4912568;29;1499;-69
2021/01/16 07:24:43;;;;;;;;;;;;;;;15.30;58.99;101697.31;4912826;29;812;-70
2021/01/16 07:27:12;;;;;;;;;;;;;;;15.33;59.43;101697.22;4912989;29;1289;-69
2021/01/16 07:29:39;;;;;;;;;;;;;;;15.33;58.96;101699.84;4912982;29;851;-69
2021/01/16 07:32:14;;;;;;;;;;;;;;;15.31;59.09;101704.31;4912882;29;1269;-69
2021/01/16 07:34:48;;;;;;;;;;;;;;;15.29;58.86;101706.09;4912781;29;1977;-70
2021/01/16 07:37:17;;;;;;;;;;;;;;;15.31;59.04;101699.91;4911023;29;1298;-71
2021/01/16 07:39:44;;;;;;;;;;;;;;;15.27;59.11;101700.91;4911175;29;902;-69
2021/01/16 07:42:12;;;;;;;;;;;;;;;15.29;59.10;101706.94;4912731;29;1293;-70
2021/01/16 07:44:45;;;;;;;;;;;;;;;15.28;59.61;101713.13;4911222;29;1408;-69
2021/01/16 07:47:22;;;;;;;;;;;;;;;15.30;59.18;101707.81;4911198;29;1337;-69
2021/01/16 07:49:54;;;;;;;;;;;;;;;15.28;58.97;101702.63;4895681;29;894;-69
2021/01/16 07:52:25;;;;;;;;;;;;;;;15.28;58.93;101705.25;4895488;29;1364;-69
2021/01/16 07:55:02;;;;;;;;;;;;;;;15.27;58.83;101710.53;4912337;29;1906;-70
2021/01/16 07:57:30;;;;;;;;;;;;;;;15.24;58.87;101718.47;4912526;29;1279;-70
2021/01/16 08:00:00;;;;;;;;;;;;;;;15.28;58.65;101738.50;4912666;29;930;-70
2021/01/16 08:02:30;;;;;;;;;;;;;;;15.25;59.09;101739.47;4911108;29;1734;-70
2021/01/16 08:05:05;;;;;;;;;;;;;;;15.23;58.88;101740.38;4912594;29;839;-70
2021/01/16 08:07:50;;;;;;;;;;;;;;;15.22;58.86;101736.06;4895426;29;1277;-69
2021/01/16 08:10:18;;;;;;;;;;;;;;;15.38;58.89;101733.88;4911709;29;811;-68
2021/01/16 08:12:46;;;;;;;;;;;;;;;15.31;58.83;101738.44;4912336;29;1367;-68
2021/01/16 08:15:16;;;;;;;;;;;;;;;15.29;58.58;101737.59;4912607;29;1982;-68
2021/01/16 08:17:44;;;;;;;;;;;;;;;15.25;58.85;101749.09;4912774;29;1305;-68
2021/01/16 08:20:27;;;;;;;;;;;;;;;15.27;59.26;101747.28;4912302;29;772;-71
2021/01/16 08:22:57;;;;;;;;;;;;;;;15.26;58.77;101753.41;4912634;29;1230;-67
2021/01/16 08:25:30;;;;;;;;;;;;;;;15.27;58.94;101757.78;4911067;29;918;-68
2021/01/16 08:27:59;;;;;;;;;;;;;;;15.24;58.51;101760.47;4912558;29;1343;-69
2021/01/16 08:30:29;;;;;;;;;;;;;;;15.23;58.67;101769.25;4914636;29;1030;-68
2021/01/16 08:32:57;;;;;;;;;;;;;;;15.24;58.63;101778.84;4914386;29;1410;-67
2021/01/16 08:35:29;;;;;;;;;;;;;;;15.21;58.81;101782.44;4915241;29;1931;-68
2021/01/16 08:38:19;;;;;;;;;;;;;;;15.22;58.62;101778.03;4915909;29;1423;-69
2021/01/16 08:40:49;;;;;;;;;;;;;;;15.18;58.74;101787.75;4906252;29;1571;-68
2021/01/16 08:43:34;;;;;;;;;;;;;;;15.19;58.59;101789.50;4915534;29;1297;-69
2021/01/16 08:46:08;;;;;;;;;;;;;;;15.20;58.38;101785.06;4915184;29;1096;-70
2021/01/16 08:48:35;;;;;;;;;;;;;;;15.23;58.70;101785.00;4914050;29;1242;-68
2021/01/16 08:51:22;;;;;;;;;;;;;;;15.23;58.41;101790.25;4915362;29;945;-69
2021/01/16 08:53:48;;;;;;;;;;;;;;;15.27;58.84;101787.53;4915044;29;1297;-70
2021/01/16 08:56:21;;;;;;;;;;;;;;;15.27;58.82;101791.91;4915404;29;1907;-68
2021/01/16 08:58:47;;;;;;;;;;;;;;;15.21;58.71;101795.56;4914829;29;1214;-67
2021/01/16 09:01:14;;;;;;;;;;;;;;;15.25;59.37;101804.22;4913601;29;1271;-72
2021/01/16 09:03:40;;;;;;;;;;;;;;;14.64;50.90;101797.00;4915167;29;1237;-69
2021/01/16 09:06:07;;;;;;;;;;;;;;;13.93;47.49;101801.13;4915135;29;1155;-71
2021/01/16 09:08:33;;;;;;;;;;;;;;;13.85;47.88;101803.94;4915256;29;1262;-71
2021/01/16 09:11:14;;;;;;;;;;;;;;;14.21;49.58;101799.66;4899005;29;1062;-73
2021/01/16 09:13:41;;;;;;;;;;;;;;;14.67;51.75;101810.03;4914884;29;1341;-73
2021/01/16 09:16:27;;;;;;;;;;;;;;;14.76;52.25;101810.69;4913592;29;1911;-73
2021/01/16 09:18:55;;;;;;;;;;;;;;;14.85;52.39;101822.72;4911770;29;1362;-72
2021/01/16 09:21:25;;;;;;;;;;;;;;;14.86;52.48;101819.19;4913330;29;885;-72
2021/01/16 09:23:52;;;;;;;;;;;;;;;14.95;52.96;101826.84;4912609;29;1385;-72
2021/01/16 09:26:20;;;;;;;;;;;;;;;14.97;53.08;101824.16;4896790;29;1307;-73
2021/01/16 09:28:47;;;;;;;;;;;;;;;14.96;53.66;101827.69;4912186;29;1343;-73
2021/01/16 09:31:17;;;;;;;;;;;;;;;14.98;54.31;101818.03;4911470;29;1258;-73
2021/01/16 09:33:44;;;;;;;;;;;;;;;15.13;54.43;101822.91;4912918;29;1566;-72
2021/01/16 09:36:11;;;;;;;;;;;;;;;15.10;54.67;101828.22;4913744;29;2270;-72
2021/01/16 09:38:41;;;;;;;;;;;;;;;15.07;54.91;101833.56;4913722;29;1246;-72
2021/01/16 09:41:07;;;;;;;;;;;;;;;15.06;55.56;101826.56;4913618;29;1137;-72
2021/01/16 09:43:42;;;;;;;;;;;;;;;15.10;55.83;101834.34;4914155;29;1359;-72
2021/01/16 09:46:09;;;;;;;;;;;;;;;15.08;55.89;101838.75;4914170;29;1085;-72
2021/01/16 09:48:42;;;;;;;;;;;;;;;15.13;56.12;101836.91;4914246;29;1250;-72
2021/01/16 09:51:09;;;;;;;;;;;;;;;15.12;56.20;101839.53;4914559;29;1150;-73
2021/01/16 09:53:36;;;;;;;;;;;;;;;15.43;57.25;101856.25;4912702;29;1348;-76
2021/01/16 09:56:03;;;;;;;;;;;;;;;15.47;56.49;101852.66;4914246;29;1982;-71
2021/01/16 09:58:31;;;;;;;;;;;;;;;15.33;56.47;101849.50;4914136;29;1321;-70
2021/01/16 10:01:17;;;;;;;;;;;;;;;15.27;56.58;101844.41;4897475;29;902;-71
2021/01/16 10:03:44;;;;;;;;;;;;;;;15.40;57.18;101853.72;4914226;29;1219;-71
2021/01/16 10:06:13;;;;;;;;;;;;;;;15.51;57.43;101862.19;4914153;29;1035;-70
2021/01/16 10:08:40;;;;;;;;;;;;;;;15.70;57.34;101862.56;4896739;29;1789;-71
2021/01/16 10:11:07;;;;;;;;;;;;;;;15.91;56.98;101864.63;4897192;29;1075;-69
2021/01/16 10:13:34;;;;;;;;;;;;;;;16.07;56.69;101854.53;4914016;29;1341;-70
2021/01/16 10:16:04;;;;;;;;;;;;;;;16.22;56.53;101867.25;4913397;29;1976;-70
2021/01/16 10:18:32;;;;;;;;;;;;;;;16.32;56.46;101866.09;4913718;29;1234;-69
2021/01/16 10:21:04;;;;;;;;;;;;;;;16.41;56.36;101863.19;4913775;29;1128;-69
2021/01/16 10:23:35;;;;;;;;;;;;;;;16.52;56.32;101865.47;4913536;29;1222;-69
2021/01/16 10:26:05;;;;;;;;;;;;;;;16.59;56.24;101869.69;4896654;29;1065;-69
2021/01/16 10:28:39;;;;;;;;;;;;;;;16.62;56.24;101873.09;4896736;29;1269;-70
2021/01/16 10:31:06;;;;;;;;;;;;;;;16.65;56.18;101870.38;4912036;29;1084;-71
2021/01/16 10:33:39;;;;;;;;;;;;;;;16.68;56.26;101864.16;4913023;29;1226;-70
2021/01/16 10:36:09;;;;;;;;;;;;;;;16.70;56.37;101857.91;4888784;29;1982;-70
2021/01/16 10:38:42;;;;;;;;;;;;;;;16.70;56.64;101855.28;4892518;29;1405;-71
2021/01/16 10:44:36;;;;;;;;;;;;;;;16.76;56.43;101841.94;4903062;29;1366;-70
2021/01/16 10:47:17;;;;;;;;;;;;;;;16.73;56.95;101842.03;4896036;29;1171;-70
2021/01/16 10:49:50;;;;;;;;;;;;;;;16.72;56.93;101840.31;4913016;29;755;-71
2021/01/16 10:52:28;;;;;;;;;;;;;;;16.77;56.94;101835.78;4913222;29;1286;-69
2021/01/16 10:55:13;;;;;;;;;;;;;;;16.98;56.39;101836.84;4906895;29;1911;-70
2021/01/16 10:57:44;;;;;;;;;;;;;;;17.00;56.99;101836.78;4929326;29;1262;-71
2021/01/16 11:00:12;;;;;;;;;;;;;;;16.93;56.97;101836.16;4929928;29;1135;-68
2021/01/16 11:02:51;;;;;;;;;;;;;;;16.92;57.16;101832.66;4930900;29;1351;-68
2021/01/16 11:05:19;;;;;;;;;;;;;;;16.89;57.23;101840.66;4929617;29;1369;-68
2021/01/16 11:07:46;;;;;;;;;;;;;;;16.92;57.16;101831.78;4931378;29;1299;-68
2021/01/16 11:10:14;;;;;;;;;;;;;;;16.89;57.22;101832.75;4931024;29;858;-68
2021/01/16 11:12:41;;;;;;;;;;;;;;;16.91;57.42;101824.78;4931302;29;1293;-68
2021/01/16 11:15:27;;;;;;;;;;;;;;;16.91;57.15;101817.75;4931378;29;1906;-68
2021/01/16 11:18:01;;;;;;;;;;;;;;;16.91;57.34;101809.00;4931812;29;1234;-68
2021/01/16 11:20:48;;;;;;;;;;;;;;;16.90;57.26;101818.66;4916435;29;842;-67
2021/01/16 11:23:17;;;;;;;;;;;;;;;16.92;57.42;101822.13;4931268;29;1258;-68
2021/01/16 11:25:47;;;;;;;;;;;;;;;16.93;57.41;101809.84;4930380;29;1012;-67
2021/01/16 11:28:19;;;;;;;;;;;;;;;16.92;57.53;101806.34;4929663;29;1320;-68
2021/01/16 11:30:46;;;;;;;;;;;;;;;16.92;57.21;101821.25;4929158;29;1371;-69
2021/01/16 11:33:14;;;;;;;;;;;;;;;16.94;57.62;101817.66;4912595;29;1344;-67
2021/01/16 11:35:41;;;;;;;;;;;;;;;16.94;57.21;101822.06;4877629;29;1982;-68
2021/01/16 11:38:26;;;;;;;;;;;;;;;16.93;57.33;101818.56;4910697;29;1439;-67
2021/01/16 11:40:53;;;;;;;;;;;;;;;16.92;57.39;101821.25;4911556;29;974;-68
2021/01/16 11:43:24;;;;;;;;;;;;;;;16.94;57.70;101815.03;4909457;29;1352;-70
2021/01/16 11:45:59;;;;;;;;;;;;;;;16.95;57.74;101805.38;4908802;29;1058;-67
2021/01/16 11:48:26;;;;;;;;;;;;;;;16.94;57.40;101791.34;4910089;29;1246;-68
2021/01/16 11:50:52;;;;;;;;;;;;;;;16.96;57.61;101790.44;4910710;29;1099;-67
2021/01/16 11:53:19;;;;;;;;;;;;;;;16.97;57.74;101792.16;4911110;29;1203;-68
2021/01/16 11:55:46;;;;;;;;;;;;;;;16.98;57.39;101775.44;4910313;29;1914;-68
2021/01/16 11:58:12;;;;;;;;;;;;;;;16.97;57.50;101776.34;4911527;29;1398;-67
2021/01/16 12:00:38;;;;;;;;;;;;;;;16.96;57.68;101767.63;4911424;29;795;-69
2021/01/16 12:03:16;;;;;;;;;;;;;;;16.98;57.66;101772.81;4909449;29;1349;-68
2021/01/16 12:05:43;;;;;;;;;;;;;;;16.99;57.63;101774.56;4914252;29;1199;-68
2021/01/16 12:08:12;;;;;;;;;;;;;;;16.98;57.53;101784.22;4914939;29;1219;-67
2021/01/16 12:10:39;;;;;;;;;;;;;;;16.95;57.53;101773.78;4914485;29;940;-68
2021/01/16 12:13:10;;;;;;;;;;;;;;;16.97;57.52;101766.69;4914577;29;1309;-68
2021/01/16 12:15:37;;;;;;;;;;;;;;;16.98;57.37;101767.56;4914486;29;1903;-68
2021/01/16 12:18:06;;;;;;;;;;;;;;;16.98;57.48;101759.66;4914493;29;1242;-68
2021/01/16 12:20:33;;;;;;;;;;;;;;;16.98;57.40;101767.56;4897729;29;1128;-69
2021/01/16 12:23:00;;;;;;;;;;;;;;;16.98;57.63;101778.09;4913176;29;1274;-68
2021/01/16 12:25:28;;;;;;;;;;;;;;;17.01;57.61;101780.63;4913300;29;1329;-70
2021/01/16 12:27:55;;;;;;;;;;;;;;;17.01;57.61;101775.34;4897501;29;1712;-67
2021/01/16 12:30:22;;;;;;;;;;;;;;;16.91;57.52;101761.63;4915004;29;792;-67
2021/01/16 12:32:49;;;;;;;;;;;;;;;17.01;57.59;101765.69;4914979;29;1359;-67
2021/01/16 12:35:21;;;;;;;;;;;;;;;17.01;57.52;101760.41;4914549;29;1906;-68
2021/01/16 12:37:48;;;;;;;;;;;;;;;17.01;57.63;101754.28;4914291;29;1523;-67
2021/01/16 12:40:16;;;;;;;;;;;;;;;17.01;57.61;101751.66;4904698;29;993;-66
2021/01/16 12:42:42;;;;;;;;;;;;;;;17.02;57.61;101750.75;4914643;29;1277;-66
2021/01/16 12:45:13;;;;;;;;;;;;;;;17.09;57.03;101749.63;4914190;29;1502;-68
2021/01/16 12:47:40;;;;;;;;;;;;;;;16.97;57.10;101740.38;4915508;29;1307;-68
2021/01/16 12:50:07;;;;;;;;;;;;;;;16.98;57.42;101746.50;4897035;29;1274;-67
2021/01/16 12:52:33;;;;;;;;;;;;;;;16.90;57.26;101723.09;4901955;29;1262;-67
2021/01/16 12:55:00;;;;;;;;;;;;;;;16.96;57.29;101717.63;4914621;29;1958;-68
2021/01/16 12:57:31;;;;;;;;;;;;;;;16.97;57.26;101713.19;4915246;29;1277;-68
2021/01/16 12:59:57;;;;;;;;;;;;;;;16.96;57.05;101711.50;4915185;29;780;-68
2021/01/16 13:02:24;;;;;;;;;;;;;;;16.96;57.21;101711.50;4915165;29;1277;-67